Terminal Aerodrome Forecast
Issued by NWS

Home | Current Version | Previous Version | Text Only | Print | Product List | Glossary On
Versions: 1 2 3 4 5 6 7 8 9 10 11 12 13
000
FTUS46 KLOX 072338
TAFSBP
TAF
KSBP 072338Z 0800/0824 31008KT P6SM OVC100
     FM080300 VRB03KT P6SM SCT040 OVC070
     FM081200 14006KT 6SM BR VCSH BKN025 OVC050
     FM081500 14006KT 4SM -RA SCT015 OVC025
     FM081800 17008KT 3SM -RA OVC008=

USA.gov is the U.S. government's official web portal to all federal, state and local government web resources and services.